Time;durP1;ratioP1;P1;durP2;ratioP2;P2;SDS_P1;SDS_P2;PMS_P1;PMS_P2;Temp;Humidity;BMP_temperature;BMP_pressure;BME280_temperature;BME280_humidity;BME280_pressure;Samples;Min_cycle;Max_cycle;Signal;HPM_P1;HPM_P2
2023/10/03 00:00:28;;;;;;;16.43;7.47;;;;;;;;;;5011342;28;20444;-70
2023/10/03 00:02:57;;;;;;;19.27;8.10;;;;;;;;;;5014345;28;20554;-69
2023/10/03 00:05:28;;;;;;;14.90;6.60;;;;;;;;;;5013142;28;20542;-69
2023/10/03 00:07:55;;;;;;;21.00;8.83;;;;;;;;;;5037780;28;20485;-69
2023/10/03 00:10:23;;;;;;;17.13;7.70;;;;;;;;;;5029378;28;20474;-69
2023/10/03 00:12:51;;;;;;;19.30;7.37;;;;;;;;;;5036940;28;20447;-70
2023/10/03 00:15:20;;;;;;;13.37;5.40;;;;;;;;;;5027934;28;20957;-71
2023/10/03 00:17:48;;;;;;;12.67;5.47;;;;;;;;;;5008873;28;20954;-69
2023/10/03 00:20:18;;;;;;;11.30;4.90;;;;;;;;;;5015046;28;21010;-71
2023/10/03 00:22:45;;;;;;;15.50;6.40;;;;;;;;;;5020387;28;20463;-71
2023/10/03 00:25:17;;;;;;;16.53;5.90;;;;;;;;;;5022638;28;20470;-71
2023/10/03 00:27:46;;;;;;;17.33;6.67;;;;;;;;;;5002995;28;20498;-70
2023/10/03 00:30:13;;;;;;;13.67;6.03;;;;;;;;;;5013328;28;20452;-70
2023/10/03 00:32:41;;;;;;;17.30;6.43;;;;;;;;;;5011542;28;20463;-70
2023/10/03 00:35:08;;;;;;;17.30;6.90;;;;;;;;;;5014865;28;20498;-71
2023/10/03 00:37:39;;;;;;;17.60;6.70;;;;;;;;;;5014282;28;20518;-70
2023/10/03 00:40:16;;;;;;;19.30;6.77;;;;;;;;;;5034576;28;20522;-70
2023/10/03 00:42:44;;;;;;;17.73;6.10;;;;;;;;;;5016137;28;20828;-69
2023/10/03 00:45:13;;;;;;;15.13;5.80;;;;;;;;;;5019964;28;20491;-70
2023/10/03 00:47:41;;;;;;;16.30;6.00;;;;;;;;;;5002157;28;20494;-69
2023/10/03 00:50:09;;;;;;;12.93;5.03;;;;;;;;;;5013856;28;20539;-69
2023/10/03 00:52:38;;;;;;;16.23;6.17;;;;;;;;;;5014319;28;20478;-70
2023/10/03 00:55:06;;;;;;;11.70;5.70;;;;;;;;;;5019008;28;20488;-69
2023/10/03 00:57:34;;;;;;;14.50;5.50;;;;;;;;;;5016374;28;20957;-69
2023/10/03 01:00:01;;;;;;;15.07;5.70;;;;;;;;;;5014474;28;20444;-71
2023/10/03 01:02:28;;;;;;;13.93;6.40;;;;;;;;;;5011995;28;20551;-71
2023/10/03 01:04:55;;;;;;;16.83;6.67;;;;;;;;;;5021069;28;20483;-70
2023/10/03 01:07:23;;;;;;;14.47;5.87;;;;;;;;;;5015560;28;20456;-70
2023/10/03 01:09:53;;;;;;;14.60;5.53;;;;;;;;;;5014078;28;20460;-71
2023/10/03 01:12:21;;;;;;;17.23;6.57;;;;;;;;;;5012455;28;20462;-70
2023/10/03 01:14:48;;;;;;;15.97;6.03;;;;;;;;;;5013457;28;20461;-71
2023/10/03 01:17:16;;;;;;;15.23;5.13;;;;;;;;;;5026608;28;20455;-71
2023/10/03 01:19:44;;;;;;;12.00;4.47;;;;;;;;;;5012730;28;20480;-70
2023/10/03 01:22:14;;;;;;;11.90;5.40;;;;;;;;;;5018499;28;20546;-70
2023/10/03 01:24:43;;;;;;;19.90;5.97;;;;;;;;;;5013109;28;20492;-70
2023/10/03 01:27:10;;;;;;;14.67;5.33;;;;;;;;;;5017085;28;20553;-70
2023/10/03 01:29:37;;;;;;;17.97;6.60;;;;;;;;;;5011829;28;20469;-70
2023/10/03 01:32:06;;;;;;;12.23;5.70;;;;;;;;;;5006087;28;20815;-70
2023/10/03 01:34:33;;;;;;;14.17;5.00;;;;;;;;;;5004966;28;20468;-70
2023/10/03 01:37:00;;;;;;;10.00;4.93;;;;;;;;;;5012396;28;20823;-70
2023/10/03 01:39:28;;;;;;;12.50;4.80;;;;;;;;;;5013493;28;20475;-70
2023/10/03 01:41:56;;;;;;;10.73;4.77;;;;;;;;;;5015125;28;20449;-70
2023/10/03 01:44:26;;;;;;;15.30;5.40;;;;;;;;;;5024911;28;20479;-70
2023/10/03 01:46:54;;;;;;;10.73;6.30;;;;;;;;;;5018571;28;20472;-70
2023/10/03 01:49:21;;;;;;;11.90;5.57;;;;;;;;;;5013063;28;20793;-69
2023/10/03 01:51:48;;;;;;;13.67;6.20;;;;;;;;;;5012303;28;20561;-70
2023/10/03 01:54:15;;;;;;;12.83;5.40;;;;;;;;;;5013048;28;20467;-70
2023/10/03 01:56:42;;;;;;;11.50;5.77;;;;;;;;;;5013173;28;20443;-70
2023/10/03 01:59:11;;;;;;;14.23;5.40;;;;;;;;;;5004831;28;20492;-69
2023/10/03 02:01:38;;;;;;;13.07;6.33;;;;;;;;;;5017798;28;20534;-69
2023/10/03 02:04:06;;;;;;;11.77;5.73;;;;;;;;;;5009634;28;20546;-70
2023/10/03 02:06:33;;;;;;;13.00;5.17;;;;;;;;;;5012822;28;20488;-69
2023/10/03 02:09:02;;;;;;;23.20;6.30;;;;;;;;;;5012574;28;20460;-70
2023/10/03 02:11:32;;;;;;;13.43;5.90;;;;;;;;;;5015162;28;20456;-69
2023/10/03 02:14:03;;;;;;;15.80;6.00;;;;;;;;;;5012752;28;20456;-70
2023/10/03 02:16:35;;;;;;;17.10;5.53;;;;;;;;;;5006282;28;20459;-70
2023/10/03 02:19:02;;;;;;;13.50;6.60;;;;;;;;;;5011307;28;20950;-70
2023/10/03 02:21:29;;;;;;;11.70;5.10;;;;;;;;;;5012104;28;20444;-69
2023/10/03 02:23:56;;;;;;;16.43;7.23;;;;;;;;;;5012037;28;20492;-69
2023/10/03 02:26:28;;;;;;;14.03;5.20;;;;;;;;;;5013074;28;20514;-69
2023/10/03 02:28:59;;;;;;;15.03;5.20;;;;;;;;;;5012754;28;20440;-69
2023/10/03 02:31:26;;;;;;;13.90;6.13;;;;;;;;;;5018675;28;20464;-69
2023/10/03 02:33:55;;;;;;;15.83;5.40;;;;;;;;;;5012065;28;21221;-69
2023/10/03 02:36:22;;;;;;;14.00;5.73;;;;;;;;;;5012324;28;20444;-70
2023/10/03 02:38:50;;;;;;;16.37;7.07;;;;;;;;;;5021314;28;20459;-70
2023/10/03 02:41:17;;;;;;;13.20;4.47;;;;;;;;;;5007578;28;20482;-70
2023/10/03 02:43:46;;;;;;;11.33;4.70;;;;;;;;;;5012269;28;20510;-70
2023/10/03 02:46:13;;;;;;;16.50;6.47;;;;;;;;;;5012241;28;20480;-70
2023/10/03 02:48:41;;;;;;;10.17;4.60;;;;;;;;;;5010789;28;20550;-70
2023/10/03 02:51:10;;;;;;;13.97;6.33;;;;;;;;;;5011939;28;20502;-70
2023/10/03 02:53:37;;;;;;;16.57;5.50;;;;;;;;;;5010776;28;20767;-70
2023/10/03 02:56:05;;;;;;;13.23;6.17;;;;;;;;;;5013067;28;20941;-69
2023/10/03 02:58:32;;;;;;;12.70;5.07;;;;;;;;;;5017977;28;20543;-70
2023/10/03 03:00:59;;;;;;;13.77;5.80;;;;;;;;;;5018356;28;20451;-70
2023/10/03 03:03:30;;;;;;;11.53;5.73;;;;;;;;;;5012168;28;20451;-70
2023/10/03 03:05:57;;;;;;;12.93;5.27;;;;;;;;;;5013641;28;20976;-71
2023/10/03 03:08:28;;;;;;;9.50;4.23;;;;;;;;;;5010321;28;20470;-71
2023/10/03 03:10:57;;;;;;;14.93;5.20;;;;;;;;;;5022410;28;20544;-70
2023/10/03 03:13:24;;;;;;;16.90;6.10;;;;;;;;;;5014635;28;20458;-70
2023/10/03 03:15:59;;;;;;;11.60;5.37;;;;;;;;;;5019561;28;20448;-70
2023/10/03 03:18:43;;;;;;;15.27;6.30;;;;;;;;;;4999908;28;20448;-70
2023/10/03 03:21:13;;;;;;;13.97;5.10;;;;;;;;;;5009896;28;20925;-69
2023/10/03 03:23:43;;;;;;;10.50;5.17;;;;;;;;;;5018169;28;20862;-69
2023/10/03 03:26:17;;;;;;;10.50;4.93;;;;;;;;;;5022845;28;20463;-69
2023/10/03 03:28:45;;;;;;;9.37;4.30;;;;;;;;;;5011177;28;20444;-69
2023/10/03 03:31:20;;;;;;;11.47;5.00;;;;;;;;;;5009476;28;20484;-69
2023/10/03 03:33:47;;;;;;;12.27;4.53;;;;;;;;;;5011388;28;20625;-70
2023/10/03 03:36:18;;;;;;;10.73;4.70;;;;;;;;;;5019236;28;20490;-69
2023/10/03 03:38:47;;;;;;;11.60;4.23;;;;;;;;;;5018768;28;20459;-70
2023/10/03 03:41:14;;;;;;;11.83;6.00;;;;;;;;;;5011922;28;20639;-69
2023/10/03 03:43:42;;;;;;;10.77;4.20;;;;;;;;;;5015922;28;20471;-70
2023/10/03 03:46:10;;;;;;;10.93;4.73;;;;;;;;;;5015831;28;20972;-69
2023/10/03 03:48:38;;;;;;;10.27;5.97;;;;;;;;;;5016044;28;20475;-69
2023/10/03 03:51:06;;;;;;;9.27;5.43;;;;;;;;;;5017040;28;20484;-69
2023/10/03 03:53:34;;;;;;;14.33;4.50;;;;;;;;;;5015581;28;20997;-69
2023/10/03 03:56:04;;;;;;;15.20;5.90;;;;;;;;;;5026082;28;20448;-69
2023/10/03 03:58:34;;;;;;;13.77;5.30;;;;;;;;;;5015452;28;20483;-69
2023/10/03 04:01:06;;;;;;;11.33;5.23;;;;;;;;;;5018850;28;20455;-70
2023/10/03 04:03:35;;;;;;;13.00;5.60;;;;;;;;;;5014870;28;20569;-70
2023/10/03 04:06:05;;;;;;;12.73;4.60;;;;;;;;;;5023181;28;20480;-70
2023/10/03 04:08:32;;;;;;;13.33;5.40;;;;;;;;;;5014879;28;20527;-69
2023/10/03 04:11:03;;;;;;;8.63;5.10;;;;;;;;;;5014598;28;20472;-69
2023/10/03 04:13:38;;;;;;;13.03;4.80;;;;;;;;;;5015219;28;20444;-69
2023/10/03 04:16:06;;;;;;;9.57;4.60;;;;;;;;;;5021704;28;20457;-69
2023/10/03 04:18:33;;;;;;;12.33;5.80;;;;;;;;;;5021999;28;20946;-70
2023/10/03 04:21:01;;;;;;;16.73;4.93;;;;;;;;;;5014044;28;20463;-71
2023/10/03 04:23:27;;;;;;;12.40;4.53;;;;;;;;;;5005411;28;20878;-70
2023/10/03 04:25:54;;;;;;;10.87;4.70;;;;;;;;;;5022613;28;20480;-70
2023/10/03 04:28:21;;;;;;;12.40;5.03;;;;;;;;;;5019485;28;20440;-69
2023/10/03 04:30:53;;;;;;;14.80;4.50;;;;;;;;;;5014407;28;20759;-70
2023/10/03 04:33:23;;;;;;;11.57;5.40;;;;;;;;;;5017325;28;20442;-70
2023/10/03 04:35:50;;;;;;;8.73;4.60;;;;;;;;;;5014073;28;20452;-70
2023/10/03 04:38:17;;;;;;;9.53;4.30;;;;;;;;;;5013214;28;20448;-69
2023/10/03 04:40:47;;;;;;;13.73;5.40;;;;;;;;;;5014530;28;20852;-70
2023/10/03 04:43:14;;;;;;;11.63;4.57;;;;;;;;;;5013815;28;20452;-69
2023/10/03 04:45:42;;;;;;;8.67;4.10;;;;;;;;;;5013830;28;20487;-70
2023/10/03 04:48:10;;;;;;;9.30;3.90;;;;;;;;;;5013952;28;20861;-70
2023/10/03 04:50:39;;;;;;;12.57;4.60;;;;;;;;;;5014194;28;21040;-69
2023/10/03 04:53:08;;;;;;;8.87;4.57;;;;;;;;;;5013993;28;20462;-70
2023/10/03 04:55:35;;;;;;;10.30;4.03;;;;;;;;;;5022153;28;20475;-72
2023/10/03 04:58:02;;;;;;;11.90;4.50;;;;;;;;;;5014785;28;20436;-68
2023/10/03 05:00:30;;;;;;;12.37;4.90;;;;;;;;;;5013110;28;20468;-69
2023/10/03 05:02:57;;;;;;;12.27;4.53;;;;;;;;;;5014112;28;20907;-69
2023/10/03 05:05:26;;;;;;;13.30;4.63;;;;;;;;;;5014160;28;20492;-68
2023/10/03 05:07:53;;;;;;;13.13;3.83;;;;;;;;;;5015130;28;20452;-69
2023/10/03 05:10:21;;;;;;;14.00;5.10;;;;;;;;;;5008745;28;20922;-68
2023/10/03 05:12:50;;;;;;;8.03;4.13;;;;;;;;;;5014800;28;20906;-70
2023/10/03 05:15:17;;;;;;;9.40;4.40;;;;;;;;;;5015364;28;20511;-69
2023/10/03 05:17:45;;;;;;;9.30;4.70;;;;;;;;;;5015197;28;20444;-68
2023/10/03 05:20:14;;;;;;;10.53;4.30;;;;;;;;;;5015065;28;20459;-68
2023/10/03 05:22:43;;;;;;;9.87;4.30;;;;;;;;;;5014504;28;20444;-68
2023/10/03 05:25:11;;;;;;;8.13;3.37;;;;;;;;;;5014257;28;20484;-67
2023/10/03 05:27:40;;;;;;;9.90;3.77;;;;;;;;;;5014615;28;20544;-68
2023/10/03 05:30:08;;;;;;;9.13;4.43;;;;;;;;;;5014552;28;20490;-68
2023/10/03 05:32:36;;;;;;;11.73;4.53;;;;;;;;;;5014352;28;20815;-68
2023/10/03 05:35:04;;;;;;;10.07;3.50;;;;;;;;;;5013948;28;20463;-68
2023/10/03 05:37:33;;;;;;;8.03;4.30;;;;;;;;;;5014075;28;20452;-68
2023/10/03 05:40:11;;;;;;;7.83;3.93;;;;;;;;;;5013712;28;20554;-69
2023/10/03 05:42:40;;;;;;;11.60;4.20;;;;;;;;;;5013352;28;20507;-69
2023/10/03 05:45:08;;;;;;;9.37;4.37;;;;;;;;;;5013247;28;20488;-69
2023/10/03 05:47:36;;;;;;;8.20;3.90;;;;;;;;;;5014000;28;20459;-69
2023/10/03 05:50:03;;;;;;;7.80;4.33;;;;;;;;;;5013973;28;20505;-69
2023/10/03 05:52:31;;;;;;;6.87;3.67;;;;;;;;;;5013188;28;20911;-69
2023/10/03 05:54:59;;;;;;;7.10;4.20;;;;;;;;;;5013541;28;20468;-70
2023/10/03 05:57:28;;;;;;;8.83;4.10;;;;;;;;;;5012174;28;20868;-69
2023/10/03 05:59:55;;;;;;;6.67;3.93;;;;;;;;;;5013558;28;20463;-68
2023/10/03 06:02:22;;;;;;;10.83;4.00;;;;;;;;;;5013459;28;20884;-68
2023/10/03 06:04:50;;;;;;;10.43;3.50;;;;;;;;;;5012522;28;20892;-69
2023/10/03 06:07:17;;;;;;;9.30;3.70;;;;;;;;;;5013151;28;20875;-69
2023/10/03 06:09:44;;;;;;;10.97;4.60;;;;;;;;;;5013217;28;20543;-69
2023/10/03 06:12:12;;;;;;;6.13;2.60;;;;;;;;;;5013503;28;20853;-69
2023/10/03 06:14:40;;;;;;;9.00;3.33;;;;;;;;;;5013228;28;20549;-68
2023/10/03 06:17:08;;;;;;;9.80;4.13;;;;;;;;;;5013959;28;20452;-68
2023/10/03 06:19:37;;;;;;;8.60;3.80;;;;;;;;;;5013447;28;20444;-69
2023/10/03 06:22:05;;;;;;;8.33;3.67;;;;;;;;;;5013011;28;20448;-69
2023/10/03 06:24:33;;;;;;;7.07;4.73;;;;;;;;;;5013032;28;20468;-68
2023/10/03 06:27:00;;;;;;;6.67;3.13;;;;;;;;;;5018819;28;20465;-68
2023/10/03 06:29:27;;;;;;;7.60;4.13;;;;;;;;;;5015761;28;20451;-69
2023/10/03 06:31:56;;;;;;;10.40;4.50;;;;;;;;;;5012913;28;20448;-69
2023/10/03 06:34:25;;;;;;;9.50;4.60;;;;;;;;;;5012352;28;20464;-70
2023/10/03 06:36:52;;;;;;;7.27;3.93;;;;;;;;;;5011909;28;20751;-69
2023/10/03 06:39:19;;;;;;;5.80;2.83;;;;;;;;;;5011313;28;20544;-69
2023/10/03 06:41:47;;;;;;;9.77;4.30;;;;;;;;;;5012179;28;20520;-69
2023/10/03 06:44:14;;;;;;;6.40;3.00;;;;;;;;;;5012862;28;20464;-67
2023/10/03 06:46:42;;;;;;;9.90;4.00;;;;;;;;;;5013141;28;20562;-68
2023/10/03 06:49:11;;;;;;;7.60;3.90;;;;;;;;;;5012908;28;20472;-68
2023/10/03 06:51:38;;;;;;;10.20;4.10;;;;;;;;;;5008458;28;20950;-70
2023/10/03 06:54:05;;;;;;;8.13;3.50;;;;;;;;;;5012960;28;20471;-69
2023/10/03 06:56:34;;;;;;;8.23;3.50;;;;;;;;;;5013856;28;20494;-70
2023/10/03 06:59:01;;;;;;;11.33;3.47;;;;;;;;;;5012665;28;20454;-67
2023/10/03 07:01:29;;;;;;;7.23;4.10;;;;;;;;;;5013060;28;20621;-69
2023/10/03 07:03:57;;;;;;;7.63;3.63;;;;;;;;;;5013183;28;20530;-69
2023/10/03 07:06:26;;;;;;;12.10;3.73;;;;;;;;;;5013002;28;20859;-70
2023/10/03 07:08:55;;;;;;;7.73;2.80;;;;;;;;;;5013178;28;21048;-68
2023/10/03 07:11:23;;;;;;;8.60;3.23;;;;;;;;;;5014069;28;20491;-69
2023/10/03 07:13:50;;;;;;;6.77;2.97;;;;;;;;;;5014132;28;20543;-69
2023/10/03 07:16:18;;;;;;;10.27;3.80;;;;;;;;;;5012928;28;20455;-69
2023/10/03 07:18:46;;;;;;;8.60;3.70;;;;;;;;;;5014891;28;20431;-69
2023/10/03 07:21:15;;;;;;;6.10;3.20;;;;;;;;;;5017653;28;20444;-69
2023/10/03 07:23:44;;;;;;;5.37;3.87;;;;;;;;;;5012219;28;20522;-69
2023/10/03 07:26:11;;;;;;;6.97;3.60;;;;;;;;;;5013149;28;20480;-68
2023/10/03 07:28:38;;;;;;;7.27;3.40;;;;;;;;;;5009629;28;20460;-68
2023/10/03 07:31:09;;;;;;;7.63;3.47;;;;;;;;;;5013847;28;20448;-69
2023/10/03 07:33:36;;;;;;;7.23;3.90;;;;;;;;;;5012876;28;20515;-68
2023/10/03 07:36:05;;;;;;;6.23;2.40;;;;;;;;;;5012769;28;20444;-69
2023/10/03 07:38:32;;;;;;;6.00;2.93;;;;;;;;;;5011150;28;20448;-69
2023/10/03 07:41:01;;;;;;;5.90;3.20;;;;;;;;;;5011619;28;20448;-68
2023/10/03 07:43:28;;;;;;;8.17;3.67;;;;;;;;;;5011812;28;20440;-69
2023/10/03 07:45:56;;;;;;;6.47;3.50;;;;;;;;;;5011869;28;20476;-70
2023/10/03 07:48:23;;;;;;;9.73;3.70;;;;;;;;;;5009543;28;20490;-71
2023/10/03 07:50:50;;;;;;;4.97;3.30;;;;;;;;;;4998181;28;20458;-71
2023/10/03 07:53:18;;;;;;;4.50;2.47;;;;;;;;;;5011728;28;20440;-70
2023/10/03 07:55:45;;;;;;;8.30;3.20;;;;;;;;;;5011938;28;20447;-71
2023/10/03 07:58:14;;;;;;;5.97;3.10;;;;;;;;;;5011831;28;20440;-70
2023/10/03 08:00:44;;;;;;;6.43;3.30;;;;;;;;;;5010992;28;20436;-71
2023/10/03 08:03:11;;;;;;;5.97;3.03;;;;;;;;;;5011188;28;20953;-70
2023/10/03 08:05:39;;;;;;;3.70;2.20;;;;;;;;;;5011357;28;20484;-71
2023/10/03 08:08:07;;;;;;;6.30;3.40;;;;;;;;;;5010748;28;20497;-72
2023/10/03 08:10:35;;;;;;;4.40;2.73;;;;;;;;;;5009706;28;20837;-71
2023/10/03 08:13:03;;;;;;;7.10;3.57;;;;;;;;;;5011437;28;20436;-71
2023/10/03 08:15:32;;;;;;;4.87;2.40;;;;;;;;;;5011548;28;20914;-70
2023/10/03 08:18:00;;;;;;;6.00;2.73;;;;;;;;;;5011397;28;20873;-69
2023/10/03 08:20:29;;;;;;;4.30;2.50;;;;;;;;;;5011495;28;20452;-69
2023/10/03 08:23:02;;;;;;;4.50;2.80;;;;;;;;;;5011255;28;20522;-69
2023/10/03 08:25:30;;;;;;;7.87;2.57;;;;;;;;;;5011156;28;20483;-68
2023/10/03 08:27:58;;;;;;;4.60;2.70;;;;;;;;;;5010498;28;20455;-69
2023/10/03 08:30:29;;;;;;;5.10;2.87;;;;;;;;;;5014862;28;20455;-70
2023/10/03 08:32:58;;;;;;;6.40;3.10;;;;;;;;;;5015218;28;20440;-70
2023/10/03 08:35:34;;;;;;;5.93;2.87;;;;;;;;;;5014979;28;20545;-70
2023/10/03 08:38:05;;;;;;;4.17;2.80;;;;;;;;;;5003072;28;20439;-70
2023/10/03 08:40:36;;;;;;;3.67;2.10;;;;;;;;;;5014994;28;20441;-70
2023/10/03 08:43:04;;;;;;;4.57;2.30;;;;;;;;;;5014666;28;20439;-70
2023/10/03 08:45:34;;;;;;;3.60;2.30;;;;;;;;;;5013360;28;20487;-70
2023/10/03 08:48:06;;;;;;;4.93;2.20;;;;;;;;;;5014252;28;20910;-70
2023/10/03 08:50:36;;;;;;;3.97;2.77;;;;;;;;;;5014864;28;20821;-69
2023/10/03 08:53:15;;;;;;;5.73;2.63;;;;;;;;;;5016441;28;20451;-69
2023/10/03 08:55:43;;;;;;;5.17;2.80;;;;;;;;;;5014599;28;20449;-70
2023/10/03 08:58:14;;;;;;;5.47;3.37;;;;;;;;;;5014437;28;20448;-69
2023/10/03 09:00:44;;;;;;;5.90;2.97;;;;;;;;;;5013723;28;20472;-69
2023/10/03 09:03:13;;;;;;;6.13;3.03;;;;;;;;;;5013718;28;20439;-70
2023/10/03 09:05:41;;;;;;;6.70;3.37;;;;;;;;;;5015201;28;20498;-71
2023/10/03 09:08:09;;;;;;;5.70;2.90;;;;;;;;;;5194192;23;20455;-76
2023/10/03 09:10:50;;;;;;;5.60;3.07;;;;;;;;;;5053805;28;20824;-74
2023/10/03 09:13:23;;;;;;;8.50;3.90;;;;;;;;;;5047395;28;20497;-74
2023/10/03 09:15:51;;;;;;;7.33;3.83;;;;;;;;;;5034433;28;20442;-74
2023/10/03 09:18:21;;;;;;;6.97;3.07;;;;;;;;;;5034009;28;20440;-72
2023/10/03 09:20:49;;;;;;;5.40;2.77;;;;;;;;;;5034029;28;20554;-74
2023/10/03 09:23:18;;;;;;;7.40;3.20;;;;;;;;;;5033131;28;20451;-75
2023/10/03 09:25:52;;;;;;;4.27;2.97;;;;;;;;;;5032365;28;20848;-74
2023/10/03 09:28:27;;;;;;;5.00;2.80;;;;;;;;;;5030885;28;20435;-75
2023/10/03 09:30:56;;;;;;;4.77;2.87;;;;;;;;;;5034397;28;20438;-75
2023/10/03 09:33:25;;;;;;;4.17;2.40;;;;;;;;;;5034010;28;20440;-75
2023/10/03 09:35:58;;;;;;;6.27;3.63;;;;;;;;;;5031204;28;20959;-76
2023/10/03 09:38:42;;;;;;;4.93;2.97;;;;;;;;;;5033606;28;20481;-75
2023/10/03 09:41:17;;;;;;;4.03;2.80;;;;;;;;;;5032848;28;20442;-75
2023/10/03 09:43:47;;;;;;;5.00;2.73;;;;;;;;;;5030631;28;21022;-75
2023/10/03 09:46:23;;;;;;;6.97;3.00;;;;;;;;;;5033813;28;20541;-75
2023/10/03 09:48:53;;;;;;;4.70;2.90;;;;;;;;;;5033595;28;20497;-74
2023/10/03 09:51:21;;;;;;;6.63;3.30;;;;;;;;;;5033623;28;20501;-75
2023/10/03 09:53:48;;;;;;;3.83;2.50;;;;;;;;;;5033628;28;20471;-75
2023/10/03 09:56:19;;;;;;;6.23;2.93;;;;;;;;;;5033689;28;20443;-77
2023/10/03 09:58:48;;;;;;;4.70;2.50;;;;;;;;;;5032707;28;20489;-77
2023/10/03 10:01:18;;;;;;;5.30;3.17;;;;;;;;;;5033237;28;20482;-77
2023/10/03 10:03:48;;;;;;;4.73;3.07;;;;;;;;;;5033311;28;20877;-76
2023/10/03 10:06:28;;;;;;;6.13;3.33;;;;;;;;;;5030144;28;20498;-76
2023/10/03 10:08:58;;;;;;;4.70;3.17;;;;;;;;;;5021407;28;20564;-76
2023/10/03 10:11:27;;;;;;;5.60;3.00;;;;;;;;;;5033228;28;20940;-76
2023/10/03 10:14:08;;;;;;;5.40;3.10;;;;;;;;;;5033107;28;20463;-77
2023/10/03 10:16:35;;;;;;;3.40;2.57;;;;;;;;;;5032996;28;20438;-76
2023/10/03 10:19:04;;;;;;;4.23;2.60;;;;;;;;;;5032923;28;20447;-76
2023/10/03 10:21:36;;;;;;;5.10;3.50;;;;;;;;;;5033518;28;20450;-76
2023/10/03 10:24:20;;;;;;;4.87;2.63;;;;;;;;;;5033126;28;20463;-77
2023/10/03 10:26:49;;;;;;;4.33;2.63;;;;;;;;;;5022151;28;20505;-77
2023/10/03 10:29:19;;;;;;;4.43;3.20;;;;;;;;;;5033437;28;20447;-77
2023/10/03 10:31:49;;;;;;;5.67;2.60;;;;;;;;;;5033634;28;20531;-76
2023/10/03 10:34:37;;;;;;;3.77;2.50;;;;;;;;;;5032527;28;20462;-75
2023/10/03 10:37:09;;;;;;;4.30;2.40;;;;;;;;;;5032968;28;20469;-77
2023/10/03 10:39:56;;;;;;;4.33;2.87;;;;;;;;;;5019966;28;20513;-77
2023/10/03 10:42:25;;;;;;;3.17;2.53;;;;;;;;;;5032621;28;20937;-77
2023/10/03 10:45:17;;;;;;;3.63;2.40;;;;;;;;;;5033460;28;20463;-77
2023/10/03 10:47:45;;;;;;;4.20;2.80;;;;;;;;;;5020395;28;20482;-76
2023/10/03 10:50:13;;;;;;;5.10;2.50;;;;;;;;;;5032675;28;20457;-76
2023/10/03 10:52:53;;;;;;;5.27;2.73;;;;;;;;;;5032688;28;20447;-76
2023/10/03 10:55:22;;;;;;;3.37;2.50;;;;;;;;;;5031745;28;20581;-76
2023/10/03 10:57:52;;;;;;;4.23;2.77;;;;;;;;;;5032323;28;20439;-77
2023/10/03 11:00:22;;;;;;;3.67;2.40;;;;;;;;;;5032537;28;20451;-77
2023/10/03 11:02:49;;;;;;;3.27;2.63;;;;;;;;;;5038441;28;20423;-77
2023/10/03 11:05:16;;;;;;;5.17;2.80;;;;;;;;;;5057411;28;20483;-78
2023/10/03 11:07:49;;;;;;;3.80;2.37;;;;;;;;;;5056476;28;20466;-77
2023/10/03 11:10:18;;;;;;;5.60;2.83;;;;;;;;;;5041315;28;20553;-76
2023/10/03 11:12:58;;;;;;;4.80;2.80;;;;;;;;;;5032231;28;20845;-76
2023/10/03 11:15:26;;;;;;;4.30;3.07;;;;;;;;;;5020851;28;20486;-78
2023/10/03 11:17:53;;;;;;;5.43;2.90;;;;;;;;;;5030112;28;20467;-77
2023/10/03 11:20:20;;;;;;;5.30;3.17;;;;;;;;;;5032710;28;20447;-77
2023/10/03 11:22:47;;;;;;;4.10;2.67;;;;;;;;;;5031151;28;20451;-76
2023/10/03 11:25:15;;;;;;;3.97;2.60;;;;;;;;;;5032172;28;20843;-76
2023/10/03 11:27:43;;;;;;;4.13;3.00;;;;;;;;;;5031912;28;20553;-77
2023/10/03 11:30:15;;;;;;;5.70;2.70;;;;;;;;;;5031532;28;20451;-76
2023/10/03 11:32:42;;;;;;;5.20;2.80;;;;;;;;;;5031803;28;20749;-76
2023/10/03 11:35:16;;;;;;;5.40;2.80;;;;;;;;;;5031129;28;20471;-76
2023/10/03 11:37:45;;;;;;;4.77;3.00;;;;;;;;;;5031457;28;20917;-77
2023/10/03 11:40:17;;;;;;;6.80;3.97;;;;;;;;;;5031866;28;20439;-76
2023/10/03 11:42:52;;;;;;;7.83;3.17;;;;;;;;;;5032269;28;20439;-76
2023/10/03 11:45:20;;;;;;;3.53;2.70;;;;;;;;;;5030027;28;20525;-77
2023/10/03 11:48:00;;;;;;;3.87;2.43;;;;;;;;;;5031396;28;20478;-77
2023/10/03 11:50:27;;;;;;;5.07;3.40;;;;;;;;;;5030408;28;20568;-78
2023/10/03 11:52:56;;;;;;;4.17;3.17;;;;;;;;;;5031614;28;20784;-78
2023/10/03 11:55:23;;;;;;;3.80;2.80;;;;;;;;;;5031523;28;20597;-77
2023/10/03 11:57:52;;;;;;;4.47;2.97;;;;;;;;;;5031882;28;20924;-77
2023/10/03 12:00:24;;;;;;;4.40;3.27;;;;;;;;;;5031960;28;20454;-77
2023/10/03 12:02:51;;;;;;;3.50;3.20;;;;;;;;;;5032834;28;20435;-77
2023/10/03 12:05:19;;;;;;;4.60;3.10;;;;;;;;;;5034947;28;20470;-77
2023/10/03 12:07:47;;;;;;;4.30;2.77;;;;;;;;;;5035415;28;20516;-77
2023/10/03 12:10:14;;;;;;;4.77;2.93;;;;;;;;;;5024553;28;20895;-76
2023/10/03 12:12:41;;;;;;;6.07;3.30;;;;;;;;;;5035039;28;20450;-76
2023/10/03 12:15:13;;;;;;;3.80;2.23;;;;;;;;;;5035302;28;20466;-77
2023/10/03 12:17:40;;;;;;;5.23;2.77;;;;;;;;;;5035590;28;20431;-77
2023/10/03 12:20:11;;;;;;;4.50;3.03;;;;;;;;;;5022393;28;20442;-77
2023/10/03 12:22:39;;;;;;;6.03;2.50;;;;;;;;;;5034765;28;20447;-77
2023/10/03 12:25:09;;;;;;;4.33;2.60;;;;;;;;;;5035027;28;20468;-76
2023/10/03 12:27:36;;;;;;;5.43;3.50;;;;;;;;;;5033935;28;20481;-76
2023/10/03 12:30:04;;;;;;;5.53;3.27;;;;;;;;;;5034818;28;20450;-76
2023/10/03 12:32:34;;;;;;;5.23;3.20;;;;;;;;;;5033664;28;20440;-77
2023/10/03 12:35:01;;;;;;;3.53;2.40;;;;;;;;;;5025235;28;20561;-76
2023/10/03 12:37:29;;;;;;;5.00;2.07;;;;;;;;;;5034921;28;20432;-76
2023/10/03 12:40:01;;;;;;;8.37;3.30;;;;;;;;;;5027755;28;20925;-77
2023/10/03 12:42:30;;;;;;;4.67;3.20;;;;;;;;;;5034400;28;20450;-76
2023/10/03 12:45:00;;;;;;;4.23;2.40;;;;;;;;;;5035032;28;20502;-76
2023/10/03 12:47:27;;;;;;;4.10;3.30;;;;;;;;;;5034439;28;20537;-77
2023/10/03 12:49:57;;;;;;;3.93;2.80;;;;;;;;;;5034971;28;20441;-77
2023/10/03 12:52:24;;;;;;;5.80;3.07;;;;;;;;;;5034208;28;20506;-77
2023/10/03 12:54:51;;;;;;;3.70;2.87;;;;;;;;;;5034925;28;20458;-77
2023/10/03 12:57:19;;;;;;;4.83;2.70;;;;;;;;;;5034085;28;20446;-78
2023/10/03 12:59:47;;;;;;;3.83;2.80;;;;;;;;;;5034516;28;20447;-78
2023/10/03 13:02:17;;;;;;;7.93;3.23;;;;;;;;;;5034987;28;20443;-76
2023/10/03 13:04:45;;;;;;;5.33;3.33;;;;;;;;;;5033671;28;20467;-76
2023/10/03 13:07:14;;;;;;;5.83;2.97;;;;;;;;;;5022716;28;20853;-76
2023/10/03 13:09:41;;;;;;;5.70;2.90;;;;;;;;;;5033890;28;20459;-75
2023/10/03 13:12:09;;;;;;;4.37;3.30;;;;;;;;;;5034301;28;20501;-76
2023/10/03 13:14:36;;;;;;;5.20;3.10;;;;;;;;;;5032741;28;20475;-75
2023/10/03 13:17:04;;;;;;;5.30;2.70;;;;;;;;;;5032103;28;20493;-76
2023/10/03 13:19:31;;;;;;;6.83;3.00;;;;;;;;;;5033106;28;20458;-75
2023/10/03 13:21:58;;;;;;;6.27;3.13;;;;;;;;;;5033615;28;20501;-75
2023/10/03 13:24:27;;;;;;;4.57;2.90;;;;;;;;;;5029030;28;20470;-75
2023/10/03 13:26:54;;;;;;;4.17;3.13;;;;;;;;;;5033731;28;20451;-76
2023/10/03 13:29:22;;;;;;;5.43;2.90;;;;;;;;;;5034017;28;20447;-76
2023/10/03 13:31:50;;;;;;;4.37;3.27;;;;;;;;;;5033932;28;20977;-77
2023/10/03 13:34:17;;;;;;;4.67;3.13;;;;;;;;;;5033071;28;21028;-76
2023/10/03 13:36:45;;;;;;;5.50;3.37;;;;;;;;;;5033952;28;20443;-77
2023/10/03 13:39:12;;;;;;;5.10;3.37;;;;;;;;;;5032892;28;20448;-76
2023/10/03 13:41:42;;;;;;;6.33;3.40;;;;;;;;;;5033571;28;20443;-76
2023/10/03 13:44:11;;;;;;;5.07;3.07;;;;;;;;;;5034002;28;20467;-76
2023/10/03 13:46:38;;;;;;;4.20;2.97;;;;;;;;;;5033740;28;20442;-76
2023/10/03 13:49:06;;;;;;;5.30;3.23;;;;;;;;;;5033609;28;20483;-77
2023/10/03 13:51:34;;;;;;;4.53;3.27;;;;;;;;;;5031522;28;20447;-75
2023/10/03 13:54:03;;;;;;;9.00;3.20;;;;;;;;;;5033346;28;20590;-75
2023/10/03 13:56:31;;;;;;;4.90;3.20;;;;;;;;;;5031306;28;20451;-75
2023/10/03 13:59:00;;;;;;;6.73;3.27;;;;;;;;;;5033546;28;20475;-75
2023/10/03 14:01:27;;;;;;;5.40;3.13;;;;;;;;;;5032021;28;20447;-76
2023/10/03 14:03:54;;;;;;;7.10;3.80;;;;;;;;;;5032805;28;20481;-76
2023/10/03 14:06:22;;;;;;;7.97;3.40;;;;;;;;;;5021520;28;20444;-76
2023/10/03 14:08:49;;;;;;;4.50;2.60;;;;;;;;;;5032341;28;20498;-76
2023/10/03 14:11:21;;;;;;;5.87;3.47;;;;;;;;;;5033247;28;20454;-76
2023/10/03 14:13:50;;;;;;;4.17;2.90;;;;;;;;;;5032519;28;20463;-75
2023/10/03 14:16:21;;;;;;;4.50;2.93;;;;;;;;;;5032965;28;20447;-75
2023/10/03 14:18:48;;;;;;;8.40;3.13;;;;;;;;;;5033752;28;20869;-75
2023/10/03 14:21:16;;;;;;;6.37;3.53;;;;;;;;;;5032732;28;20458;-75
2023/10/03 14:23:43;;;;;;;4.53;3.17;;;;;;;;;;5032829;28;20495;-75
2023/10/03 14:26:11;;;;;;;3.70;2.47;;;;;;;;;;5030384;28;20471;-76
2023/10/03 14:28:38;;;;;;;4.03;2.57;;;;;;;;;;5032760;28;20485;-75
2023/10/03 14:31:06;;;;;;;6.13;3.60;;;;;;;;;;5031095;28;20543;-76
2023/10/03 14:33:34;;;;;;;5.83;2.93;;;;;;;;;;5030834;28;20571;-75
2023/10/03 14:36:03;;;;;;;3.27;2.60;;;;;;;;;;5048064;28;20450;-74
2023/10/03 14:38:30;;;;;;;4.60;2.70;;;;;;;;;;5041522;28;20439;-76
2023/10/03 14:40:58;;;;;;;3.40;2.17;;;;;;;;;;5033475;28;20452;-76
2023/10/03 14:43:25;;;;;;;5.33;2.23;;;;;;;;;;5032437;28;20439;-76
2023/10/03 14:45:53;;;;;;;3.23;2.40;;;;;;;;;;5032632;28;20454;-76
2023/10/03 14:48:24;;;;;;;4.57;2.67;;;;;;;;;;5032136;28;20483;-75